Time;durP1;ratioP1;P1;durP2;ratioP2;P2;SDS_P1;SDS_P2;PMS_P1;PMS_P2;Temp;Humidity;BMP_temperature;BMP_pressure;BME280_temperature;BME280_humidity;BME280_pressure;Samples;Min_cycle;Max_cycle;Signal;HPM_P1;HPM_P2
2020/12/12 00:02:22;;;;;;;21.90;16.77;;;3.00;99.90;;;3.59;96.19;95840.41;5248267;28;20205;-80
2020/12/12 00:04:54;;;;;;;19.83;15.30;;;3.00;99.90;;;3.56;96.27;95834.34;5247357;28;20202;-80
2020/12/12 00:07:26;;;;;;;22.13;16.53;;;2.90;99.90;;;3.52;95.68;95837.50;5247397;28;20204;-81
2020/12/12 00:09:59;;;;;;;39.70;28.03;;;2.90;99.90;;;3.49;95.48;95838.25;5248643;28;20220;-80
2020/12/12 00:12:31;;;;;;;32.30;23.93;;;2.90;99.90;;;3.53;96.01;95840.13;5239488;28;20211;-81
2020/12/12 00:15:05;;;;;;;25.47;17.70;;;2.90;99.90;;;3.51;94.48;95835.78;5248376;28;20204;-79
2020/12/12 00:17:37;;;;;;;67.87;48.03;;;2.90;99.90;;;3.42;94.36;95836.19;5248417;28;20664;-81
2020/12/12 00:20:09;;;;;;;25.57;19.30;;;2.90;99.90;;;3.47;94.21;95832.22;5243758;28;20249;-80
2020/12/12 00:22:41;;;;;;;54.80;46.90;;;2.90;99.90;;;3.49;93.49;95823.09;5242130;28;20755;-80
2020/12/12 00:25:16;;;;;;;43.13;38.53;;;3.00;99.90;;;3.45;91.94;95826.22;5248360;28;20669;-80
2020/12/12 00:27:48;;;;;;;40.80;36.50;;;3.00;99.90;;;3.57;92.61;95820.94;5247972;28;20220;-81
2020/12/12 00:30:20;;;;;;;27.77;24.50;;;3.10;99.90;;;3.59;94.13;95824.41;5247465;28;20221;-78
2020/12/12 00:32:52;;;;;;;22.73;16.43;;;3.10;99.90;;;3.62;93.98;95822.03;5248491;28;20200;-80
2020/12/12 00:35:24;;;;;;;22.83;17.40;;;3.10;99.90;;;3.65;93.65;95821.31;5241505;28;20204;-80
2020/12/12 00:37:56;;;;;;;24.47;18.60;;;3.10;99.90;;;3.75;93.99;95811.75;5245930;28;20687;-80
2020/12/12 00:40:29;;;;;;;20.43;15.93;;;3.20;99.90;;;3.69;93.40;95820.66;5246897;28;20218;-80
2020/12/12 00:43:01;;;;;;;22.00;16.33;;;3.20;99.90;;;3.69;93.59;95821.56;5247524;28;20672;-80
2020/12/12 00:45:33;;;;;;;22.10;16.03;;;3.20;99.90;;;3.63;92.88;95818.72;5247610;28;20234;-81
2020/12/12 00:48:05;;;;;;;25.63;22.83;;;3.20;99.90;;;3.68;93.71;95803.78;5248120;28;20205;-79
2020/12/12 00:50:37;;;;;;;21.27;18.37;;;3.20;99.90;;;3.80;94.57;95814.50;5246729;28;20202;-81
2020/12/12 00:53:09;;;;;;;21.07;17.23;;;3.20;99.90;;;3.77;93.19;95814.34;5235356;28;20284;-81
2020/12/12 00:55:42;;;;;;;22.57;16.20;;;3.20;99.90;;;3.71;91.58;95814.03;5236389;28;20659;-81
2020/12/12 00:58:14;;;;;;;23.37;19.00;;;3.20;99.90;;;3.69;91.80;95820.66;5246343;28;20587;-80
2020/12/12 01:00:46;;;;;;;21.23;17.50;;;3.20;99.90;;;3.75;92.61;95805.81;5243545;28;20202;-81
2020/12/12 01:03:18;;;;;;;23.37;17.13;;;3.20;99.90;;;3.66;87.89;95816.34;5247783;28;20204;-81
2020/12/12 01:05:51;;;;;;;23.70;16.97;;;3.20;99.90;;;3.69;90.64;95815.63;5245697;28;20603;-81
2020/12/12 01:08:23;;;;;;;23.03;17.17;;;3.20;99.90;;;3.77;92.38;95814.34;5246713;28;20620;-80
2020/12/12 01:10:55;;;;;;;21.90;16.80;;;3.30;99.90;;;3.65;90.42;95818.78;5247757;28;20241;-81
2020/12/12 01:13:27;;;;;;;21.47;15.93;;;3.20;99.90;;;3.71;92.06;95824.16;5248263;28;20210;-81
2020/12/12 01:16:03;;;;;;;23.93;17.70;;;3.20;99.90;;;3.73;92.21;95828.50;5247307;28;20306;-81
2020/12/12 01:18:36;;;;;;;24.43;19.70;;;3.20;99.90;;;3.63;92.22;95826.28;5246983;28;20218;-80
2020/12/12 01:21:09;;;;;;;20.93;16.97;;;3.20;99.90;;;3.61;93.43;95836.31;5246421;28;20285;-79
2020/12/12 01:23:41;;;;;;;23.07;17.57;;;3.20;99.90;;;3.66;94.83;95843.25;5244156;28;20585;-79
2020/12/12 01:26:14;;;;;;;22.13;16.97;;;3.20;99.90;;;3.64;94.86;95837.28;5244941;28;20226;-80
2020/12/12 01:28:46;;;;;;;24.60;18.10;;;3.20;99.90;;;3.64;95.01;95840.66;5227223;28;20241;-79
2020/12/12 01:31:18;;;;;;;25.10;18.73;;;3.20;99.90;;;3.59;94.68;95825.28;5238964;28;20203;-79
2020/12/12 01:33:50;;;;;;;26.93;19.60;;;3.10;99.90;;;3.68;94.73;95824.88;5247427;28;20579;-80
2020/12/12 01:36:22;;;;;;;23.00;17.73;;;3.10;99.90;;;3.58;95.31;95833.66;5247625;28;20192;-80
2020/12/12 01:38:54;;;;;;;24.10;17.63;;;3.10;99.90;;;3.65;95.35;95839.00;5247148;28;20219;-79
2020/12/12 01:41:27;;;;;;;20.23;15.43;;;3.10;99.90;;;3.63;95.46;95835.53;5248027;28;20204;-82
2020/12/12 01:43:59;;;;;;;22.57;17.67;;;3.10;99.90;;;3.51;95.21;95824.00;5247076;28;20601;-81
2020/12/12 01:46:33;;;;;;;22.70;16.87;;;3.00;99.90;;;3.53;95.90;95830.00;5243346;28;20229;-82
2020/12/12 01:49:06;;;;;;;21.33;16.47;;;3.00;99.90;;;3.52;96.07;95828.28;5246633;28;20235;-82
2020/12/12 01:51:39;;;;;;;26.93;18.93;;;3.00;99.90;;;3.56;96.32;95830.16;5247140;28;20703;-80
2020/12/12 01:54:12;;;;;;;25.97;19.60;;;3.00;99.90;;;3.58;95.72;95838.69;5246533;28;20289;-81
2020/12/12 01:56:47;;;;;;;24.47;18.67;;;3.00;99.90;;;3.61;96.39;95836.31;5233837;28;20198;-81
2020/12/12 01:59:23;;;;;;;24.23;17.77;;;3.00;99.90;;;3.53;95.88;95841.78;5245107;28;20220;-81
2020/12/12 02:01:58;;;;;;;24.13;18.80;;;3.00;99.90;;;3.59;94.52;95835.38;5247209;28;20206;-82
2020/12/12 02:04:32;;;;;;;25.03;18.97;;;3.00;99.90;;;3.57;95.23;95841.13;5246822;28;20689;-81
2020/12/12 02:07:05;;;;;;;26.53;20.03;;;3.10;99.90;;;3.52;93.99;95840.91;5246073;28;20224;-81
2020/12/12 02:09:37;;;;;;;26.47;19.50;;;3.10;99.90;;;3.53;92.28;95837.59;5246571;28;20354;-81
2020/12/12 02:12:10;;;;;;;24.67;18.67;;;3.10;99.90;;;3.54;91.74;95841.84;5246168;28;20215;-81
2020/12/12 02:14:43;;;;;;;26.87;19.50;;;3.10;99.90;;;3.59;92.86;95840.41;5244262;28;20198;-82
2020/12/12 02:17:15;;;;;;;21.67;16.17;;;3.20;99.90;;;3.73;94.03;95837.72;5226743;28;20205;-82
2020/12/12 02:19:47;;;;;;;23.07;16.67;;;3.20;99.90;;;3.66;93.01;95845.78;5240557;28;20221;-82
2020/12/12 02:22:20;;;;;;;20.70;17.03;;;3.10;99.90;;;3.52;90.91;95838.38;5245958;28;20655;-82
2020/12/12 02:24:52;;;;;;;22.30;16.60;;;3.10;99.90;;;3.56;93.18;95830.16;5246358;28;20213;-82
2020/12/12 02:27:24;;;;;;;23.73;17.70;;;3.10;99.90;;;3.58;94.07;95827.72;5240196;28;20218;-82
2020/12/12 02:29:56;;;;;;;21.17;16.57;;;3.10;99.90;;;3.69;94.92;95835.81;5246815;28;20695;-82
2020/12/12 02:32:28;;;;;;;20.73;15.57;;;3.10;99.90;;;3.68;95.28;95829.91;5250139;28;20192;-82
2020/12/12 02:35:01;;;;;;;18.33;14.53;;;3.10;99.90;;;3.66;94.27;95825.56;5251548;28;20213;-82
2020/12/12 02:37:34;;;;;;;18.70;14.97;;;3.00;99.90;;;3.49;94.30;95827.25;5250576;28;20195;-82
2020/12/12 02:40:06;;;;;;;19.33;15.40;;;2.90;99.90;;;3.46;94.99;95824.56;5236800;28;20215;-82
2020/12/12 02:42:38;;;;;;;19.37;15.87;;;2.90;99.90;;;3.41;95.54;95829.41;5238673;28;20193;-82
2020/12/12 02:45:10;;;;;;;19.10;15.47;;;2.90;99.90;;;3.42;96.41;95825.22;5250386;28;20213;-82
2020/12/12 02:47:44;;;;;;;22.23;17.03;;;2.80;99.90;;;3.42;96.39;95821.03;5254855;28;20228;-82
2020/12/12 02:50:25;;;;;;;24.90;17.67;;;2.90;99.90;;;3.43;96.41;95812.66;5249435;28;20270;-82
2020/12/12 02:52:57;;;;;;;22.97;18.47;;;2.90;99.90;;;3.51;96.61;95816.44;5249931;28;20212;-82
2020/12/12 02:55:30;;;;;;;23.67;17.77;;;2.90;99.90;;;3.64;96.63;95812.88;5248135;28;20203;-83
2020/12/12 02:58:02;;;;;;;18.97;15.47;;;3.00;99.90;;;3.59;95.87;95817.69;5250393;28;20200;-82
2020/12/12 03:00:34;;;;;;;19.27;15.00;;;2.90;99.90;;;3.55;95.83;95812.44;5246034;28;20212;-82
2020/12/12 03:03:06;;;;;;;19.97;15.77;;;2.80;99.90;;;3.44;95.66;95819.47;5250792;28;20200;-82
2020/12/12 03:05:38;;;;;;;18.97;13.67;;;2.80;99.90;;;3.41;95.25;95815.91;5248984;28;20227;-82
2020/12/12 03:08:11;;;;;;;18.43;14.63;;;2.70;99.90;;;3.29;95.83;95814.50;5250643;28;20817;-82
2020/12/12 03:10:43;;;;;;;22.37;16.50;;;2.60;99.90;;;3.32;95.60;95806.19;5248770;28;20184;-82
2020/12/12 03:13:15;;;;;;;19.07;15.13;;;2.60;99.90;;;3.38;94.52;95811.56;5251100;28;20201;-82
2020/12/12 03:15:47;;;;;;;19.83;14.83;;;2.60;99.90;;;3.37;94.69;95813.19;5245708;28;20581;-80
2020/12/12 03:18:19;;;;;;;19.20;15.23;;;2.60;99.90;;;3.25;95.36;95817.63;5249789;28;20292;-82
2020/12/12 03:20:51;;;;;;;21.77;15.83;;;2.60;99.90;;;3.20;95.01;95813.13;5249141;28;20294;-82
2020/12/12 03:23:24;;;;;;;20.00;15.83;;;2.50;99.90;;;3.15;94.83;95808.72;5230155;28;20215;-82
2020/12/12 03:25:56;;;;;;;22.20;16.90;;;2.50;99.90;;;3.14;96.24;95809.50;5244714;28;20222;-82
2020/12/12 03:28:28;;;;;;;22.13;16.70;;;2.50;99.90;;;3.17;96.33;95808.78;5250883;28;20218;-82
2020/12/12 03:31:00;;;;;;;21.17;16.00;;;2.50;99.90;;;3.21;96.91;95817.41;5247042;28;20207;-82
2020/12/12 03:33:32;;;;;;;23.60;18.03;;;2.50;99.90;;;3.22;96.71;95809.91;5248190;28;20197;-82
2020/12/12 03:36:04;;;;;;;19.53;15.97;;;2.60;99.90;;;3.22;96.61;95807.38;5250330;28;20206;-82
2020/12/12 03:38:37;;;;;;;20.73;15.97;;;2.60;99.90;;;3.21;97.22;95809.84;5243731;28;20225;-82
2020/12/12 03:41:09;;;;;;;20.03;15.60;;;2.60;99.90;;;3.29;97.07;95814.50;5249814;28;20207;-82
2020/12/12 03:43:41;;;;;;;20.07;15.00;;;2.60;99.90;;;3.19;95.85;95822.38;5248376;28;20706;-82
2020/12/12 03:46:13;;;;;;;21.97;16.57;;;2.50;99.90;;;3.15;96.57;95813.78;5250529;28;20244;-82
2020/12/12 03:48:45;;;;;;;21.33;16.43;;;2.50;99.90;;;3.12;96.19;95811.09;5247815;28;20223;-82
2020/12/12 03:51:18;;;;;;;19.50;15.00;;;2.40;99.90;;;3.10;96.17;95821.91;5249123;28;20229;-83
2020/12/12 03:53:51;;;;;;;22.20;16.40;;;2.50;99.90;;;3.22;96.28;95816.63;5248105;28;20202;-81
2020/12/12 03:56:23;;;;;;;21.57;16.10;;;2.50;99.90;;;3.19;96.04;95816.47;5249761;28;20198;-82
2020/12/12 03:58:55;;;;;;;21.60;16.37;;;2.40;99.90;;;3.15;95.72;95817.97;5248973;28;20218;-82
2020/12/12 04:01:27;;;;;;;21.77;17.00;;;2.40;99.90;;;3.14;96.43;95822.13;5249427;28;20203;-82
2020/12/12 04:03:59;;;;;;;23.00;16.10;;;2.50;99.90;;;3.08;95.81;95834.41;5246364;28;20206;-82
2020/12/12 04:06:33;;;;;;;22.10;16.70;;;2.40;99.90;;;3.09;96.49;95823.56;5249614;28;20233;-82
2020/12/12 04:09:06;;;;;;;23.33;17.97;;;2.40;99.90;;;3.13;95.26;95827.09;5249628;28;20313;-82
2020/12/12 04:11:38;;;;;;;21.47;16.80;;;2.40;99.90;;;3.04;95.88;95832.53;5249040;28;20669;-81
2020/12/12 04:14:10;;;;;;;21.77;16.13;;;2.40;99.90;;;2.98;96.18;95827.16;5247914;28;20296;-82
2020/12/12 04:16:42;;;;;;;19.30;15.23;;;2.30;99.90;;;3.02;96.08;95839.16;5248714;28;20205;-82
2020/12/12 04:19:14;;;;;;;23.33;17.07;;;2.30;99.90;;;2.94;95.98;95835.34;5248111;28;20300;-82
2020/12/12 04:21:46;;;;;;;21.17;15.37;;;2.30;99.90;;;2.94;95.90;95832.81;5248504;28;20203;-82
2020/12/12 04:24:19;;;;;;;21.47;15.63;;;2.20;99.90;;;2.97;96.74;95835.50;5249373;28;20211;-82
2020/12/12 04:26:51;;;;;;;21.03;15.87;;;2.30;99.90;;;3.03;97.19;95834.97;5248926;28;20224;-82
2020/12/12 04:29:23;;;;;;;22.60;16.77;;;2.40;99.90;;;3.12;97.05;95832.94;5249120;28;20231;-82
2020/12/12 04:31:55;;;;;;;19.70;16.00;;;2.40;99.90;;;3.15;97.33;95830.59;5248580;28;20208;-82
2020/12/12 04:34:29;;;;;;;20.67;15.90;;;2.40;99.90;;;3.19;97.55;95844.22;5249172;28;20304;-82
2020/12/12 04:37:01;;;;;;;20.13;16.37;;;2.40;99.90;;;3.16;97.57;95843.25;5247922;28;20203;-82
2020/12/12 04:39:36;;;;;;;22.27;16.37;;;2.40;99.90;;;3.11;97.14;95837.09;5249241;28;20220;-82
2020/12/12 04:42:10;;;;;;;21.53;16.13;;;2.40;99.90;;;3.16;97.15;95842.41;5249269;28;20254;-82
2020/12/12 04:44:43;;;;;;;19.77;16.97;;;2.40;99.90;;;3.15;96.80;95836.50;5246420;28;20228;-81
2020/12/12 04:47:16;;;;;;;20.40;15.33;;;2.40;99.90;;;3.14;97.02;95837.25;5247370;28;20224;-82
2020/12/12 04:49:48;;;;;;;20.87;15.47;;;2.40;99.90;;;3.06;96.32;95848.63;5246808;28;20219;-82
2020/12/12 04:52:24;;;;;;;19.97;15.33;;;2.30;99.90;;;3.08;97.15;95844.50;5244141;28;20211;-81
2020/12/12 04:55:05;;;;;;;21.37;16.77;;;2.30;99.90;;;3.12;97.59;95838.84;5244712;28;20190;-81
2020/12/12 04:57:39;;;;;;;21.00;16.70;;;2.40;99.90;;;3.17;97.58;95836.56;5226937;28;20626;-81
2020/12/12 05:00:13;;;;;;;21.73;16.80;;;2.50;99.90;;;3.19;97.48;95845.09;5230454;28;20223;-82
2020/12/12 05:02:47;;;;;;;21.50;16.50;;;2.40;99.90;;;3.17;97.21;95839.94;5232406;28;20196;-82
2020/12/12 05:05:19;;;;;;;22.27;16.57;;;2.40;99.90;;;3.14;96.90;95839.78;5245440;28;20198;-81
2020/12/12 05:07:51;;;;;;;21.97;17.23;;;2.40;99.90;;;3.10;96.72;95839.56;5245156;28;20222;-81
2020/12/12 05:10:26;;;;;;;22.47;17.53;;;2.40;99.90;;;3.07;96.96;95846.97;5246181;28;20222;-82
2020/12/12 05:12:58;;;;;;;20.43;16.70;;;2.40;99.90;;;3.14;97.05;95844.84;5248515;28;20712;-82
2020/12/12 05:15:30;;;;;;;23.60;17.87;;;2.50;99.90;;;3.21;97.02;95840.13;5246858;28;20581;-81
2020/12/12 05:18:02;;;;;;;23.00;18.00;;;2.50;99.90;;;3.23;97.11;95844.44;5246921;28;20193;-82
2020/12/12 05:20:34;;;;;;;24.10;17.40;;;2.50;99.90;;;3.22;97.09;95849.44;5246093;28;20201;-81
2020/12/12 05:23:13;;;;;;;24.30;18.27;;;2.50;99.90;;;3.17;96.62;95849.19;5247815;28;20210;-82
2020/12/12 05:25:49;;;;;;;26.60;20.13;;;2.50;99.90;;;3.21;96.57;95850.22;5242252;28;20201;-82
2020/12/12 05:28:22;;;;;;;24.97;19.20;;;2.50;99.90;;;3.20;96.77;95849.34;5246851;28;20208;-82
2020/12/12 05:30:55;;;;;;;23.40;17.90;;;2.50;99.90;;;3.26;97.31;95848.78;5246649;28;20197;-81
2020/12/12 05:33:27;;;;;;;24.97;17.97;;;2.60;99.90;;;3.31;97.81;95847.38;5233457;28;20645;-82
2020/12/12 05:35:59;;;;;;;22.53;16.57;;;2.60;99.90;;;3.29;97.17;95851.47;5246725;28;20243;-81
2020/12/12 05:38:31;;;;;;;22.93;17.47;;;2.60;99.90;;;3.36;97.43;95856.06;5246113;28;20293;-81
2020/12/12 05:41:05;;;;;;;24.40;18.50;;;2.60;99.90;;;3.28;97.01;95847.22;5244901;28;20200;-82
2020/12/12 05:43:37;;;;;;;21.37;17.37;;;2.60;99.90;;;3.25;97.45;95847.06;5246101;28;20289;-81
2020/12/12 05:46:09;;;;;;;21.63;16.83;;;2.60;99.90;;;3.27;97.24;95848.03;5246642;28;20582;-82
2020/12/12 05:48:42;;;;;;;22.60;17.03;;;2.60;99.90;;;3.41;97.81;95849.59;5236260;28;20276;-81
2020/12/12 05:51:15;;;;;;;20.20;16.27;;;2.70;99.90;;;3.42;97.42;95848.78;5231186;28;20204;-81
2020/12/12 05:53:48;;;;;;;25.87;18.33;;;2.70;99.90;;;3.44;97.88;95848.88;5246068;28;20206;-82
2020/12/12 05:56:23;;;;;;;22.77;18.40;;;2.70;99.90;;;3.40;97.26;95847.84;5244723;28;20611;-80
2020/12/12 05:58:55;;;;;;;24.77;19.00;;;2.70;99.90;;;3.39;97.85;95841.06;5246610;28;20304;-81
2020/12/12 06:01:31;;;;;;;24.53;20.10;;;2.70;99.90;;;3.57;97.49;95844.53;5244371;28;20286;-82
2020/12/12 06:04:08;;;;;;;24.50;18.90;;;2.80;99.90;;;3.46;97.46;95853.19;5246833;28;20199;-81
2020/12/12 06:06:45;;;;;;;21.03;17.70;;;2.70;99.90;;;3.46;97.63;95854.88;5247791;28;20276;-81
2020/12/12 06:09:17;;;;;;;22.00;17.30;;;2.70;99.90;;;3.46;97.43;95855.72;5250267;28;20244;-82
2020/12/12 06:11:55;;;;;;;23.03;17.53;;;2.70;99.90;;;3.46;97.57;95857.38;5246306;28;20202;-81
2020/12/12 06:14:35;;;;;;;21.77;17.57;;;2.70;99.90;;;3.46;97.87;95853.19;5241169;28;20191;-81
2020/12/12 06:17:08;;;;;;;25.10;17.67;;;2.70;99.90;;;3.46;97.41;95853.19;5249734;28;20579;-81
2020/12/12 06:19:46;;;;;;;22.60;17.13;;;2.80;99.90;;;3.48;97.78;95854.16;5250346;28;20709;-81
2020/12/12 06:22:22;;;;;;;21.53;16.47;;;2.80;99.90;;;3.53;98.00;95859.47;5249471;28;20205;-81
2020/12/12 06:25:00;;;;;;;22.90;17.43;;;2.80;99.90;;;3.55;97.77;95862.94;5250172;28;20329;-82
2020/12/12 06:27:40;;;;;;;22.13;17.63;;;2.80;99.90;;;3.56;97.94;95859.63;5247773;28;20218;-82
2020/12/12 06:30:14;;;;;;;18.57;16.37;;;2.90;99.90;;;3.58;98.10;95858.03;5247385;28;20228;-82
2020/12/12 06:32:46;;;;;;;23.43;17.17;;;2.80;99.90;;;3.63;97.65;95866.69;5250272;28;20620;-82
2020/12/12 06:35:30;;;;;;;23.53;17.73;;;2.90;99.90;;;3.65;97.66;95875.22;5249686;28;20207;-80
2020/12/12 06:38:25;;;;;;;20.97;17.10;;;2.90;99.90;;;3.66;98.02;95874.44;5249439;28;20579;-81
2020/12/12 06:40:59;;;;;;;23.50;17.93;;;2.90;99.90;;;3.69;97.39;95872.09;5249189;28;20202;-81
2020/12/12 06:43:35;;;;;;;24.23;18.03;;;2.90;99.90;;;3.63;97.05;95881.00;5248144;28;20197;-80
2020/12/12 06:46:08;;;;;;;21.17;17.20;;;2.90;99.90;;;3.57;97.08;95884.94;5249266;28;20290;-82
2020/12/12 06:48:40;;;;;;;20.03;16.30;;;2.80;99.90;;;3.63;96.96;95878.47;5249160;28;20272;-81
2020/12/12 06:51:12;;;;;;;19.73;16.80;;;2.90;99.90;;;3.63;96.60;95889.44;5247242;28;20258;-82
2020/12/12 06:53:44;;;;;;;21.70;17.30;;;2.80;99.90;;;3.63;96.71;95896.13;5250234;28;20653;-82
2020/12/12 06:56:16;;;;;;;19.70;16.47;;;2.90;99.90;;;3.61;96.97;95893.56;5250285;28;20200;-82
2020/12/12 06:58:49;;;;;;;21.40;16.80;;;2.90;99.90;;;3.56;96.83;95898.34;5248710;28;20216;-81
2020/12/12 07:01:29;;;;;;;20.70;16.60;;;2.80;99.90;;;3.57;96.64;95902.59;5249069;28;20204;-81
2020/12/12 07:04:03;;;;;;;19.60;16.20;;;2.80;99.90;;;3.57;96.46;95902.59;5249364;28;20279;-81
2020/12/12 07:06:35;;;;;;;22.53;17.47;;;2.80;99.90;;;3.50;96.31;95909.81;5249555;28;20243;-81
2020/12/12 07:09:10;;;;;;;21.50;16.27;;;2.70;99.90;;;3.46;96.23;95912.94;5247929;28;20227;-80
2020/12/12 07:11:42;;;;;;;20.63;15.63;;;2.70;99.90;;;3.49;96.48;95914.00;5249663;28;20193;-80
2020/12/12 07:14:16;;;;;;;19.10;16.60;;;2.80;99.90;;;3.43;96.00;95913.66;5249780;28;20198;-80
2020/12/12 07:16:56;;;;;;;21.83;17.17;;;2.80;99.90;;;3.46;96.74;95915.47;5249692;28;20196;-80
2020/12/12 07:19:35;;;;;;;20.03;16.83;;;2.80;99.90;;;3.48;96.61;95919.81;5247808;28;20230;-80
2020/12/12 07:22:10;;;;;;;21.03;17.13;;;2.80;99.90;;;3.52;96.78;95921.72;5248365;28;20197;-79
2020/12/12 07:24:42;;;;;;;20.60;17.50;;;2.80;99.90;;;3.46;96.67;95926.44;5254192;28;20220;-79
2020/12/12 07:27:14;;;;;;;23.27;16.83;;;2.70;99.90;;;3.47;96.32;95930.72;5249348;28;20228;-80
2020/12/12 07:29:47;;;;;;;23.03;16.90;;;2.80;99.90;;;3.46;96.49;95918.84;5246256;28;20229;-79
2020/12/12 07:32:19;;;;;;;22.80;16.97;;;2.80;99.90;;;3.45;95.92;95927.22;5248412;28;20216;-80
2020/12/12 07:34:58;;;;;;;21.67;16.53;;;2.90;99.90;;;3.50;96.44;95935.94;5246332;28;20288;-80
2020/12/12 07:37:32;;;;;;;22.13;16.30;;;2.90;99.90;;;3.56;96.58;95930.31;5248591;28;20726;-80
2020/12/12 07:40:04;;;;;;;23.80;16.87;;;3.00;99.90;;;3.60;96.70;95935.59;5244552;28;20629;-80
2020/12/12 07:42:37;;;;;;;21.10;17.00;;;3.00;99.90;;;3.66;96.90;95940.09;5245478;28;20209;-80
2020/12/12 07:45:17;;;;;;;23.00;17.43;;;3.00;99.90;;;3.70;97.32;95948.72;5248406;28;20187;-80
2020/12/12 07:47:49;;;;;;;22.60;16.40;;;3.00;99.90;;;3.69;96.44;95954.56;5240593;28;20232;-80
2020/12/12 07:50:23;;;;;;;21.33;16.43;;;3.00;99.90;;;3.71;96.89;95952.97;5246414;28;20228;-81
2020/12/12 07:52:55;;;;;;;21.77;16.63;;;3.00;99.90;;;3.71;96.71;95951.31;5248501;28;20202;-80
2020/12/12 07:55:27;;;;;;;20.40;16.07;;;3.00;99.90;;;3.77;97.17;95953.31;5248296;28;20601;-81
2020/12/12 07:58:01;;;;;;;20.73;16.53;;;3.10;99.90;;;3.80;97.10;95953.44;5247204;28;20197;-80
2020/12/12 08:00:34;;;;;;;23.53;18.87;;;3.10;99.90;;;3.80;96.88;95966.09;5247093;28;20202;-80
2020/12/12 08:03:06;;;;;;;42.60;30.70;;;3.10;99.90;;;4.00;96.65;95962.91;5239898;28;20733;-79
2020/12/12 08:05:38;;;;;;;36.60;26.67;;;3.20;99.90;;;3.92;95.71;95964.22;5245729;28;20335;-79
2020/12/12 08:08:11;;;;;;;27.80;23.03;;;3.20;99.90;;;3.86;95.74;95976.50;5245482;28;20717;-79
2020/12/12 08:10:44;;;;;;;24.30;21.10;;;3.10;99.90;;;3.85;96.35;95967.19;5247912;28;20227;-79
2020/12/12 08:13:23;;;;;;;24.40;20.63;;;3.10;99.90;;;3.82;96.57;95974.63;5246354;28;20195;-79
2020/12/12 08:16:05;;;;;;;27.00;20.60;;;3.10;99.90;;;3.86;96.73;95986.63;5247726;28;20248;-80
2020/12/12 08:18:37;;;;;;;21.80;17.97;;;3.20;99.90;;;3.88;97.02;95984.19;5243781;28;20221;-79
2020/12/12 08:21:11;;;;;;;25.37;18.87;;;3.20;99.90;;;3.90;96.77;95988.53;5243254;28;20212;-79
2020/12/12 08:23:45;;;;;;;23.73;19.40;;;3.20;99.90;;;3.97;97.00;95990.56;5244336;28;20217;-80
2020/12/12 08:26:20;;;;;;;23.20;18.63;;;3.30;99.90;;;3.99;97.29;95989.00;5246722;28;20243;-79
2020/12/12 08:28:53;;;;;;;27.73;21.70;;;3.30;99.90;;;4.06;96.97;95996.13;5244270;28;20695;-79
2020/12/12 08:31:26;;;;;;;23.43;19.10;;;3.30;99.90;;;4.05;96.78;95993.50;5246498;28;20208;-79
2020/12/12 08:33:58;;;;;;;19.03;16.57;;;3.30;99.90;;;4.12;96.50;96000.63;5237955;28;20208;-79
2020/12/12 08:36:31;;;;;;;18.87;16.77;;;3.30;99.90;;;4.03;96.22;96003.56;5244027;28;20586;-79
2020/12/12 08:39:06;;;;;;;17.63;15.50;;;3.30;99.90;;;4.03;96.55;96003.56;5238084;28;20245;-79
2020/12/12 08:41:40;;;;;;;18.93;16.00;;;3.30;99.90;;;4.04;96.66;96007.81;5243382;28;20207;-79
2020/12/12 08:44:24;;;;;;;20.23;17.37;;;3.30;99.90;;;4.09;96.59;96015.59;5245715;28;20604;-78
2020/12/12 08:46:56;;;;;;;19.50;16.27;;;3.40;99.90;;;4.12;96.68;96017.44;5246350;28;20230;-79
2020/12/12 08:49:32;;;;;;;18.63;16.03;;;3.40;99.90;;;4.12;96.38;96019.97;5243374;28;20685;-79
2020/12/12 08:52:04;;;;;;;20.60;16.20;;;3.40;99.90;;;4.13;96.56;96024.25;5231058;28;20201;-79
2020/12/12 08:54:36;;;;;;;18.80;15.00;;;3.40;99.90;;;4.16;96.57;96029.44;5246823;28;20207;-79
2020/12/12 08:57:09;;;;;;;22.57;17.87;;;3.50;99.90;;;4.32;96.15;96034.50;5244681;28;20201;-77
2020/12/12 08:59:41;;;;;;;27.17;22.57;;;3.60;99.90;;;4.28;96.15;96027.53;5242885;28;20217;-79
2020/12/12 09:02:17;;;;;;;22.80;18.77;;;3.50;99.90;;;4.26;95.98;96031.66;5242611;28;20694;-79
2020/12/12 09:05:06;;;;;;;21.27;17.43;;;3.50;99.90;;;4.37;96.61;96032.19;5242682;28;20287;-79
2020/12/12 09:07:41;;;;;;;24.87;20.07;;;3.60;99.90;;;4.48;96.66;96034.47;5245319;28;20223;-79
2020/12/12 09:10:14;;;;;;;22.87;19.07;;;3.70;99.90;;;4.56;96.72;96045.00;5243477;28;20255;-80
2020/12/12 09:12:47;;;;;;;20.57;17.67;;;3.80;99.90;;;4.65;96.77;96047.13;5240529;28;20250;-80
2020/12/12 09:15:19;;;;;;;20.40;17.40;;;3.90;99.90;;;4.67;96.40;96048.06;5243580;28;20580;-80
2020/12/12 09:18:01;;;;;;;18.30;16.30;;;3.90;99.90;;;4.66;96.15;96053.91;5241510;28;20228;-79
2020/12/12 09:20:33;;;;;;;19.90;17.20;;;3.90;99.90;;;4.69;96.50;96064.16;5242656;28;20736;-81
2020/12/12 09:23:05;;;;;;;22.57;17.43;;;3.90;99.90;;;4.79;95.99;96058.78;5245527;28;20208;-80
2020/12/12 09:25:37;;;;;;;20.83;17.77;;;4.00;99.90;;;4.77;96.33;96059.50;5244017;28;20204;-80
2020/12/12 09:28:08;;;;;;;22.47;18.47;;;4.00;99.90;;;4.78;96.13;96061.22;5246461;28;20212;-79
2020/12/12 09:30:41;;;;;;;22.10;18.60;;;4.00;99.90;;;4.86;96.33;96065.88;5244786;28;20196;-81
2020/12/12 09:33:19;;;;;;;24.07;20.63;;;4.10;99.90;;;4.92;95.85;96071.28;5245720;28;20672;-79
2020/12/12 09:35:51;;;;;;;25.53;20.13;;;4.10;99.90;;;4.92;96.09;96067.84;5245488;28;20197;-79
2020/12/12 09:38:23;;;;;;;24.97;22.27;;;4.20;99.90;;;4.95;96.28;96070.53;5226260;28;20216;-78
2020/12/12 09:40:56;;;;;;;24.00;20.03;;;4.30;99.90;;;5.02;96.19;96074.25;5245182;28;20196;-79
2020/12/12 09:43:41;;;;;;;22.17;19.33;;;4.30;99.90;;;5.23;96.11;96072.75;5249225;28;20204;-78
2020/12/12 09:46:13;;;;;;;21.17;18.40;;;4.40;99.90;;;5.27;95.55;96072.13;5246017;28;20615;-78
2020/12/12 09:48:48;;;;;;;24.77;20.67;;;4.40;99.90;;;5.27;95.13;96081.38;5248854;28;20311;-78
2020/12/12 09:51:21;;;;;;;21.77;19.47;;;4.50;99.90;;;5.28;95.54;96075.50;5246388;28;20196;-79
2020/12/12 09:53:53;;;;;;;21.70;18.87;;;4.50;99.90;;;5.31;95.29;96089.19;5245780;28;20204;-79
2020/12/12 09:56:25;;;;;;;19.37;17.30;;;4.50;99.90;;;5.34;95.15;96081.72;5246574;28;20204;-80
2020/12/12 09:58:58;;;;;;;20.67;18.47;;;4.60;99.90;;;5.35;95.34;96083.50;5246985;28;20307;-81
2020/12/12 10:01:30;;;;;;;18.27;16.13;;;4.60;99.90;;;5.41;95.92;96091.38;5249587;28;20211;-80
2020/12/12 10:04:03;;;;;;;21.70;19.40;;;4.70;99.90;;;5.50;95.55;96090.09;5248349;28;20283;-80
2020/12/12 10:06:35;;;;;;;33.40;28.37;;;4.80;99.90;;;5.60;96.17;96089.69;5249626;28;20196;-81
2020/12/12 10:09:07;;;;;;;30.27;27.00;;;4.90;99.90;;;5.70;95.59;96096.09;5232994;28;20707;-81
2020/12/12 10:11:39;;;;;;;29.93;26.73;;;4.90;99.90;;;5.75;96.56;96100.59;5242869;28;20204;-80
2020/12/12 10:14:12;;;;;;;29.77;26.53;;;5.00;99.90;;;5.84;96.32;96095.94;5247874;28;20231;-80
2020/12/12 10:16:44;;;;;;;23.70;21.30;;;5.10;99.90;;;5.92;95.89;96103.00;5249480;28;20203;-80
2020/12/12 10:19:17;;;;;;;21.90;19.47;;;5.10;99.90;;;6.06;95.23;96113.00;5247163;28;20224;-81
2020/12/12 10:21:49;;;;;;;23.73;20.47;;;5.30;99.90;;;6.09;95.17;96108.13;5251052;28;20599;-81
2020/12/12 10:24:21;;;;;;;22.83;19.10;;;5.20;99.90;;;6.13;95.12;96110.78;5241355;28;20292;-82
2020/12/12 10:26:53;;;;;;;20.73;18.20;;;5.20;99.90;;;6.13;94.46;96104.03;5247190;28;20596;-81
2020/12/12 10:29:25;;;;;;;20.43;18.20;;;5.20;99.90;;;6.15;94.30;96111.69;5246799;28;20227;-81
2020/12/12 10:31:57;;;;;;;18.90;16.87;;;5.30;99.90;;;6.16;95.07;96109.25;5249169;28;20565;-81
2020/12/12 10:34:30;;;;;;;18.23;16.43;;;5.30;99.90;;;6.16;95.24;96109.25;5248459;28;20586;-80
2020/12/12 10:37:03;;;;;;;18.67;16.67;;;5.40;99.90;;;6.18;94.85;96116.91;5246346;28;20197;-81
2020/12/12 10:39:39;;;;;;;16.00;13.60;;;5.40;99.90;;;6.23;95.71;96112.91;5247985;28;20213;-80
2020/12/12 10:42:12;;;;;;;11.60;10.40;;;5.50;99.90;;;6.18;94.88;96115.28;5245591;28;20201;-81
2020/12/12 10:44:44;;;;;;;10.80;9.80;;;5.50;99.90;;;6.19;95.09;96119.53;5248456;28;20661;-81
2020/12/12 10:47:16;;;;;;;9.90;8.97;;;5.50;99.90;;;6.22;95.52;96118.81;5248212;28;20230;-80